sensor_id;sensor_type;location;lat;lon;timestamp;pressure;altitude;pressure_sealevel;temperature;humidity
46714;BME280;32445;51.376;10.874;2023-04-27T00:01:38;99709.03;;;4.91;44.72
46714;BME280;32445;51.376;10.874;2023-04-27T00:04:39;99708.19;;;4.88;44.26
46714;BME280;32445;51.376;10.874;2023-04-27T00:07:39;99710.75;;;4.84;44.54
46714;BME280;32445;51.376;10.874;2023-04-27T00:10:40;99704.75;;;4.81;44.92
46714;BME280;32445;51.376;10.874;2023-04-27T00:13:40;99701.34;;;4.79;44.72
46714;BME280;32445;51.376;10.874;2023-04-27T00:16:41;99703.91;;;4.76;44.86
46714;BME280;32445;51.376;10.874;2023-04-27T00:19:41;99701.31;;;4.74;44.63
46714;BME280;32445;51.376;10.874;2023-04-27T00:22:42;99705.59;;;4.71;44.81
46714;BME280;32445;51.376;10.874;2023-04-27T00:25:42;99703.88;;;4.68;44.98
46714;BME280;32445;51.376;10.874;2023-04-27T00:28:42;99704.72;;;4.65;44.68
46714;BME280;32445;51.376;10.874;2023-04-27T00:31:43;99705.59;;;4.64;45.03
46714;BME280;32445;51.376;10.874;2023-04-27T00:34:43;99709.88;;;4.64;45.22
46714;BME280;32445;51.376;10.874;2023-04-27T00:37:44;99704.72;;;4.64;45.10
46714;BME280;32445;51.376;10.874;2023-04-27T00:40:44;99705.59;;;4.64;45.13
46714;BME280;32445;51.376;10.874;2023-04-27T00:43:45;99709.03;;;4.65;45.46
46714;BME280;32445;51.376;10.874;2023-04-27T00:46:45;99711.59;;;4.66;45.41
46714;BME280;32445;51.376;10.874;2023-04-27T00:49:46;99713.31;;;4.66;45.61
46714;BME280;32445;51.376;10.874;2023-04-27T00:52:46;99710.75;;;4.67;45.36
46714;BME280;32445;51.376;10.874;2023-04-27T00:55:46;99712.47;;;4.68;45.64
46714;BME280;32445;51.376;10.874;2023-04-27T00:58:47;99703.88;;;4.70;45.82
46714;BME280;32445;51.376;10.874;2023-04-27T01:01:48;99701.31;;;4.71;46.10
46714;BME280;32445;51.376;10.874;2023-04-27T01:04:49;99711.59;;;4.73;45.89
46714;BME280;32445;51.376;10.874;2023-04-27T01:07:49;99707.31;;;4.75;45.96
46714;BME280;32445;51.376;10.874;2023-04-27T01:10:50;99702.19;;;4.75;45.66
46714;BME280;32445;51.376;10.874;2023-04-27T01:13:51;99704.75;;;4.78;45.71
46714;BME280;32445;51.376;10.874;2023-04-27T01:16:52;99709.06;;;4.79;46.23
46714;BME280;32445;51.376;10.874;2023-04-27T01:19:53;99709.91;;;4.81;46.16
46714;BME280;32445;51.376;10.874;2023-04-27T01:22:58;99709.91;;;4.81;46.34
46714;BME280;32445;51.376;10.874;2023-04-27T01:25:58;99705.63;;;4.83;46.09
46714;BME280;32445;51.376;10.874;2023-04-27T01:28:58;99714.19;;;4.85;45.83
46714;BME280;32445;51.376;10.874;2023-04-27T01:31:59;99707.31;;;4.85;46.76
46714;BME280;32445;51.376;10.874;2023-04-27T01:34:59;99715.03;;;4.87;46.65
46714;BME280;32445;51.376;10.874;2023-04-27T01:37:59;99714.19;;;4.88;46.40
46714;BME280;32445;51.376;10.874;2023-04-27T01:41:03;99721.06;;;4.88;46.24
46714;BME280;32445;51.376;10.874;2023-04-27T01:44:03;99717.63;;;4.89;46.41
46714;BME280;32445;51.376;10.874;2023-04-27T01:47:04;99719.31;;;4.90;45.86
46714;BME280;32445;51.376;10.874;2023-04-27T01:50:05;99718.47;;;4.91;45.87
46714;BME280;32445;51.376;10.874;2023-04-27T01:53:05;99718.47;;;4.89;46.18
46714;BME280;32445;51.376;10.874;2023-04-27T01:56:05;99717.63;;;4.92;46.08
46714;BME280;32445;51.376;10.874;2023-04-27T01:59:06;99722.78;;;4.93;46.37
46714;BME280;32445;51.376;10.874;2023-04-27T02:02:06;99720.19;;;4.93;46.46
46714;BME280;32445;51.376;10.874;2023-04-27T02:05:07;99726.19;;;4.94;46.37
46714;BME280;32445;51.376;10.874;2023-04-27T02:08:07;99733.06;;;4.96;46.65
46714;BME280;32445;51.376;10.874;2023-04-27T02:11:08;99731.34;;;4.97;46.77
46714;BME280;32445;51.376;10.874;2023-04-27T02:14:08;99735.63;;;4.98;46.68
46714;BME280;32445;51.376;10.874;2023-04-27T02:17:08;99733.91;;;4.98;46.43
46714;BME280;32445;51.376;10.874;2023-04-27T02:20:09;99733.91;;;4.98;46.73
46714;BME280;32445;51.376;10.874;2023-04-27T02:23:10;99745.06;;;5.00;47.00
46714;BME280;32445;51.376;10.874;2023-04-27T02:26:17;99751.06;;;4.98;47.17
46714;BME280;32445;51.376;10.874;2023-04-27T02:29:19;99733.91;;;5.00;46.72
46714;BME280;32445;51.376;10.874;2023-04-27T02:32:21;99742.50;;;5.00;46.87
46714;BME280;32445;51.376;10.874;2023-04-27T02:35:21;99747.66;;;5.00;46.60
46714;BME280;32445;51.376;10.874;2023-04-27T02:38:21;99739.06;;;5.01;46.49
46714;BME280;32445;51.376;10.874;2023-04-27T02:41:22;99745.91;;;5.01;46.94
46714;BME280;32445;51.376;10.874;2023-04-27T02:44:23;99747.66;;;5.00;47.17
46714;BME280;32445;51.376;10.874;2023-04-27T02:47:23;99751.91;;;4.98;47.17
46714;BME280;32445;51.376;10.874;2023-04-27T02:50:24;99760.50;;;4.99;47.41
46714;BME280;32445;51.376;10.874;2023-04-27T02:53:24;99763.09;;;4.99;46.72
46714;BME280;32445;51.376;10.874;2023-04-27T02:56:24;99763.09;;;4.99;46.99
46714;BME280;32445;51.376;10.874;2023-04-27T02:59:25;99755.38;;;4.99;46.73
46714;BME280;32445;51.376;10.874;2023-04-27T03:02:25;99760.50;;;4.97;47.11
46714;BME280;32445;51.376;10.874;2023-04-27T03:05:26;99762.19;;;4.98;47.14
46714;BME280;32445;51.376;10.874;2023-04-27T03:08:27;99769.06;;;4.98;47.05
46714;BME280;32445;51.376;10.874;2023-04-27T03:11:28;99766.50;;;4.98;46.67
46714;BME280;32445;51.376;10.874;2023-04-27T03:14:28;99769.91;;;4.97;47.19
46714;BME280;32445;51.376;10.874;2023-04-27T03:17:29;99780.22;;;4.97;47.30
46714;BME280;32445;51.376;10.874;2023-04-27T03:20:29;99775.94;;;4.96;47.60
46714;BME280;32445;51.376;10.874;2023-04-27T03:23:30;99780.22;;;4.95;47.22
46714;BME280;32445;51.376;10.874;2023-04-27T03:26:30;99775.06;;;4.95;46.91
46714;BME280;32445;51.376;10.874;2023-04-27T03:29:30;99773.38;;;4.96;47.31
46714;BME280;32445;51.376;10.874;2023-04-27T03:32:31;99776.78;;;4.95;47.67
46714;BME280;32445;51.376;10.874;2023-04-27T03:35:31;99781.09;;;4.94;47.13
46714;BME280;32445;51.376;10.874;2023-04-27T03:38:32;99789.66;;;4.95;47.58
46714;BME280;32445;51.376;10.874;2023-04-27T03:41:32;99782.78;;;4.94;47.64
46714;BME280;32445;51.376;10.874;2023-04-27T03:44:33;99783.66;;;4.94;47.54
46714;BME280;32445;51.376;10.874;2023-04-27T03:47:35;99787.94;;;4.95;47.15
46714;BME280;32445;51.376;10.874;2023-04-27T03:50:35;99782.78;;;4.97;46.12
46714;BME280;32445;51.376;10.874;2023-04-27T03:53:36;99784.50;;;4.95;46.75
46714;BME280;32445;51.376;10.874;2023-04-27T03:56:36;99793.94;;;4.94;47.16
46714;BME280;32445;51.376;10.874;2023-04-27T03:59:37;99787.09;;;4.93;47.18
46714;BME280;32445;51.376;10.874;2023-04-27T04:02:37;99790.50;;;4.94;47.55
46714;BME280;32445;51.376;10.874;2023-04-27T04:05:38;99792.22;;;4.93;47.43
46714;BME280;32445;51.376;10.874;2023-04-27T04:08:38;99795.66;;;4.94;47.32
46714;BME280;32445;51.376;10.874;2023-04-27T04:11:38;99792.22;;;4.93;47.91
46714;BME280;32445;51.376;10.874;2023-04-27T04:14:39;99797.38;;;4.95;47.75
46714;BME280;32445;51.376;10.874;2023-04-27T04:17:39;99792.22;;;4.93;47.62
46714;BME280;32445;51.376;10.874;2023-04-27T04:20:40;99792.22;;;4.93;47.70
46714;BME280;32445;51.376;10.874;2023-04-27T04:23:40;99795.66;;;4.92;47.44
46714;BME280;32445;51.376;10.874;2023-04-27T04:26:41;99793.06;;;4.92;47.27
46714;BME280;32445;51.376;10.874;2023-04-27T04:29:41;99788.78;;;4.91;47.72
46714;BME280;32445;51.376;10.874;2023-04-27T04:32:41;99790.50;;;4.91;47.81
46714;BME280;32445;51.376;10.874;2023-04-27T04:35:43;99785.34;;;4.92;47.40
46714;BME280;32445;51.376;10.874;2023-04-27T04:38:44;99785.34;;;4.92;46.99
46714;BME280;32445;51.376;10.874;2023-04-27T04:41:45;99788.78;;;4.91;47.49
46714;BME280;32445;51.376;10.874;2023-04-27T04:44:45;99781.06;;;4.88;47.67
46714;BME280;32445;51.376;10.874;2023-04-27T04:47:48;99782.78;;;4.88;47.66
46714;BME280;32445;51.376;10.874;2023-04-27T04:50:48;99786.22;;;4.90;47.90
46714;BME280;32445;51.376;10.874;2023-04-27T04:53:48;99790.50;;;4.91;46.77
46714;BME280;32445;51.376;10.874;2023-04-27T04:56:49;99787.94;;;4.89;47.68
46714;BME280;32445;51.376;10.874;2023-04-27T04:59:49;99781.94;;;4.89;47.51
46714;BME280;32445;51.376;10.874;2023-04-27T05:02:50;99787.94;;;4.89;48.27
46714;BME280;32445;51.376;10.874;2023-04-27T05:05:50;99792.22;;;4.92;48.17
46714;BME280;32445;51.376;10.874;2023-04-27T05:08:51;99788.78;;;4.93;47.99
46714;BME280;32445;51.376;10.874;2023-04-27T05:11:51;99785.34;;;4.94;48.29
46714;BME280;32445;51.376;10.874;2023-04-27T05:14:51;99796.53;;;4.94;48.13
46714;BME280;32445;51.376;10.874;2023-04-27T05:17:52;99792.22;;;4.96;47.97
46714;BME280;32445;51.376;10.874;2023-04-27T05:20:53;99802.53;;;4.98;48.56
46714;BME280;32445;51.376;10.874;2023-04-27T05:23:53;99805.09;;;4.99;47.86
46714;BME280;32445;51.376;10.874;2023-04-27T05:26:53;99813.69;;;5.03;48.33
46714;BME280;32445;51.376;10.874;2023-04-27T05:29:54;99815.38;;;5.04;48.39
46714;BME280;32445;51.376;10.874;2023-04-27T05:32:54;99807.66;;;5.04;48.42
46714;BME280;32445;51.376;10.874;2023-04-27T05:35:55;99817.09;;;5.07;48.20
46714;BME280;32445;51.376;10.874;2023-04-27T05:38:55;99820.56;;;5.09;48.56
46714;BME280;32445;51.376;10.874;2023-04-27T05:41:56;99823.97;;;5.12;48.50
46714;BME280;32445;51.376;10.874;2023-04-27T05:44:56;99823.97;;;5.15;48.57
46714;BME280;32445;51.376;10.874;2023-04-27T05:47:56;99828.28;;;5.21;48.31
46714;BME280;32445;51.376;10.874;2023-04-27T05:51:03;99842.03;;;5.22;49.11
46714;BME280;32445;51.376;10.874;2023-04-27T05:54:04;99842.88;;;5.27;49.15
46714;BME280;32445;51.376;10.874;2023-04-27T05:57:04;99845.44;;;5.30;49.10
46714;BME280;32445;51.376;10.874;2023-04-27T06:00:05;99849.72;;;5.34;49.40
46714;BME280;32445;51.376;10.874;2023-04-27T06:03:10;99842.00;;;5.37;48.66
46714;BME280;32445;51.376;10.874;2023-04-27T06:06:10;99842.88;;;5.37;49.26
46714;BME280;32445;51.376;10.874;2023-04-27T06:09:10;99848.03;;;5.42;48.69
46714;BME280;32445;51.376;10.874;2023-04-27T06:12:11;99845.44;;;5.47;49.36
46714;BME280;32445;51.376;10.874;2023-04-27T06:15:11;99854.88;;;5.52;49.42
46714;BME280;32445;51.376;10.874;2023-04-27T06:18:12;99854.88;;;5.54;49.43
46714;BME280;32445;51.376;10.874;2023-04-27T06:21:12;99860.91;;;5.59;49.70
46714;BME280;32445;51.376;10.874;2023-04-27T06:24:12;99852.31;;;5.63;49.33
46714;BME280;32445;51.376;10.874;2023-04-27T06:27:13;99850.59;;;5.70;49.17
46714;BME280;32445;51.376;10.874;2023-04-27T06:30:13;99849.72;;;5.74;49.72
46714;BME280;32445;51.376;10.874;2023-04-27T06:33:14;99848.00;;;5.81;50.00
46714;BME280;32445;51.376;10.874;2023-04-27T06:36:14;99854.00;;;5.91;49.44
46714;BME280;32445;51.376;10.874;2023-04-27T06:39:17;99850.59;;;5.99;49.25
46714;BME280;32445;51.376;10.874;2023-04-27T06:42:17;99842.00;;;6.05;49.69
46714;BME280;32445;51.376;10.874;2023-04-27T06:45:17;99842.84;;;6.13;50.04
46714;BME280;32445;51.376;10.874;2023-04-27T06:48:18;99848.81;;;6.20;49.76
46714;BME280;32445;51.376;10.874;2023-04-27T06:51:18;99850.50;;;6.32;49.46
46714;BME280;32445;51.376;10.874;2023-04-27T06:54:19;99851.31;;;6.41;49.64
46714;BME280;32445;51.376;10.874;2023-04-27T06:57:19;99853.88;;;6.54;49.26
46714;BME280;32445;51.376;10.874;2023-04-27T07:00:20;99853.81;;;6.62;49.41
46714;BME280;32445;51.376;10.874;2023-04-27T07:03:20;99852.09;;;6.68;50.13
46714;BME280;32445;51.376;10.874;2023-04-27T07:06:21;99851.19;;;6.74;50.43
46714;BME280;32445;51.376;10.874;2023-04-27T07:09:21;99870.06;;;6.85;50.63
46714;BME280;32445;51.376;10.874;2023-04-27T07:12:22;99862.25;;;6.96;50.35
46714;BME280;32445;51.376;10.874;2023-04-27T07:15:22;99871.69;;;7.06;50.37
46714;BME280;32445;51.376;10.874;2023-04-27T07:18:23;99863.88;;;7.13;50.02
46714;BME280;32445;51.376;10.874;2023-04-27T07:21:23;99860.41;;;7.20;49.59
46714;BME280;32445;51.376;10.874;2023-04-27T07:24:23;99864.63;;;7.30;49.67
46714;BME280;32445;51.376;10.874;2023-04-27T07:27:24;99868.03;;;7.38;49.21
46714;BME280;32445;51.376;10.874;2023-04-27T07:30:25;99867.13;;;7.42;49.12
46714;BME280;32445;51.376;10.874;2023-04-27T07:33:26;99869.63;;;7.52;49.12
46714;BME280;32445;51.376;10.874;2023-04-27T07:36:26;99868.69;;;7.62;49.12
46714;BME280;32445;51.376;10.874;2023-04-27T07:39:27;99868.63;;;7.70;48.52
46714;BME280;32445;51.376;10.874;2023-04-27T07:42:27;99858.25;;;7.74;48.27
46714;BME280;32445;51.376;10.874;2023-04-27T07:45:29;99857.28;;;7.85;48.18
46714;BME280;32445;51.376;10.874;2023-04-27T07:48:32;99854.63;;;7.95;48.02
46714;BME280;32445;51.376;10.874;2023-04-27T07:51:32;99862.25;;;8.08;47.83
46714;BME280;32445;51.376;10.874;2023-04-27T07:54:33;99858.72;;;8.15;48.08
46714;BME280;32445;51.376;10.874;2023-04-27T07:57:34;99860.38;;;8.22;48.35
46714;BME280;32445;51.376;10.874;2023-04-27T08:00:34;99865.50;;;8.28;48.33
46714;BME280;32445;51.376;10.874;2023-04-27T08:03:35;99857.59;;;8.38;47.71
46714;BME280;32445;51.376;10.874;2023-04-27T08:06:37;99869.59;;;8.48;47.37
46714;BME280;32445;51.376;10.874;2023-04-27T08:09:38;99869.47;;;8.59;47.33
46714;BME280;32445;51.376;10.874;2023-04-27T08:12:38;99877.97;;;8.70;47.26
46714;BME280;32445;51.376;10.874;2023-04-27T08:15:38;99873.50;;;8.81;47.55
46714;BME280;32445;51.376;10.874;2023-04-27T08:18:39;99863.88;;;8.93;46.83
46714;BME280;32445;51.376;10.874;2023-04-27T08:21:39;99867.13;;;9.07;46.76
46714;BME280;32445;51.376;10.874;2023-04-27T08:24:40;99868.72;;;9.16;46.14
46714;BME280;32445;51.376;10.874;2023-04-27T08:27:40;99875.44;;;9.28;46.29
46714;BME280;32445;51.376;10.874;2023-04-27T08:30:41;99876.16;;;9.39;46.20
46714;BME280;32445;51.376;10.874;2023-04-27T08:33:41;99881.19;;;9.50;46.36
46714;BME280;32445;51.376;10.874;2023-04-27T08:36:42;99881.00;;;9.61;45.70
46714;BME280;32445;51.376;10.874;2023-04-27T08:39:42;99879.06;;;9.74;45.89
46714;BME280;32445;51.376;10.874;2023-04-27T08:42:53;99865.94;;;9.83;45.92
46714;BME280;32445;51.376;10.874;2023-04-27T08:45:55;99853.56;;;9.99;45.78
46714;BME280;32445;51.376;10.874;2023-04-27T08:48:55;99853.34;;;10.10;45.36
46714;BME280;32445;51.376;10.874;2023-04-27T08:51:56;99857.38;;;10.26;44.92
46714;BME280;32445;51.376;10.874;2023-04-27T08:54:56;99857.13;;;10.40;44.61
46714;BME280;32445;51.376;10.874;2023-04-27T08:57:57;99858.56;;;10.55;44.75
46714;BME280;32445;51.376;10.874;2023-04-27T09:00:58;99848.66;;;10.74;44.35
46714;BME280;32445;51.376;10.874;2023-04-27T09:04:03;99838.66;;;10.96;43.68
46714;BME280;32445;51.376;10.874;2023-04-27T09:07:13;99838.34;;;11.10;43.66
46714;BME280;32445;51.376;10.874;2023-04-27T09:10:14;99836.25;;;11.24;43.51
46714;BME280;32445;51.376;10.874;2023-04-27T09:13:15;99829.75;;;11.44;43.27
46714;BME280;32445;51.376;10.874;2023-04-27T09:16:22;99832.66;;;11.68;42.81
46714;BME280;32445;51.376;10.874;2023-04-27T09:19:27;99844.13;;;11.92;42.18
46714;BME280;32445;51.376;10.874;2023-04-27T09:22:28;99831.69;;;12.05;39.42
46714;BME280;32445;51.376;10.874;2023-04-27T09:25:30;99839.06;;;12.20;39.82
46714;BME280;32445;51.376;10.874;2023-04-27T09:28:31;99832.63;;;12.35;39.93
46714;BME280;32445;51.376;10.874;2023-04-27T09:31:32;99839.22;;;12.47;40.18
46714;BME280;32445;51.376;10.874;2023-04-27T09:34:37;99844.16;;;12.56;40.84
46714;BME280;32445;51.376;10.874;2023-04-27T09:37:38;99841.53;;;12.56;39.49
46714;BME280;32445;51.376;10.874;2023-04-27T09:40:39;99835.41;;;12.59;39.03
46714;BME280;32445;51.376;10.874;2023-04-27T09:43:42;99834.50;;;12.60;39.59
46714;BME280;32445;51.376;10.874;2023-04-27T09:46:46;99839.94;;;12.52;38.25
46714;BME280;32445;51.376;10.874;2023-04-27T09:49:48;99838.38;;;12.45;38.10
46714;BME280;32445;51.376;10.874;2023-04-27T09:52:50;99834.94;;;12.44;38.24
46714;BME280;32445;51.376;10.874;2023-04-27T10:02:44;99825.38;;;12.75;36.84
46714;BME280;32445;51.376;10.874;2023-04-27T10:09:27;99824.28;;;12.54;37.24
46714;BME280;32445;51.376;10.874;2023-04-27T10:12:34;99833.66;;;12.59;38.01
46714;BME280;32445;51.376;10.874;2023-04-27T10:15:38;99829.78;;;12.73;38.05
46714;BME280;32445;51.376;10.874;2023-04-27T10:18:50;99826.09;;;12.80;37.39
46714;BME280;32445;51.376;10.874;2023-04-27T10:21:52;99825.13;;;12.84;37.36
46714;BME280;32445;51.376;10.874;2023-04-27T10:24:54;99827.88;;;12.78;36.98
46714;BME280;32445;51.376;10.874;2023-04-27T10:27:58;99828.47;;;12.88;36.85
46714;BME280;32445;51.376;10.874;2023-04-27T10:31:08;99818.81;;;12.91;36.76
46714;BME280;32445;51.376;10.874;2023-04-27T10:34:15;99821.03;;;13.04;37.44
46714;BME280;32445;51.376;10.874;2023-04-27T10:37:17;99818.88;;;13.18;37.33
46714;BME280;32445;51.376;10.874;2023-04-27T10:40:19;99820.31;;;13.27;36.15
46714;BME280;32445;51.376;10.874;2023-04-27T10:43:27;99816.53;;;13.37;36.20
46714;BME280;32445;51.376;10.874;2023-04-27T10:46:27;99808.88;;;13.58;36.10
46714;BME280;32445;51.376;10.874;2023-04-27T10:49:28;99811.03;;;13.72;36.07
46714;BME280;32445;51.376;10.874;2023-04-27T10:52:29;99810.88;;;13.76;35.74
46714;BME280;32445;51.376;10.874;2023-04-27T10:55:29;99809.22;;;13.74;35.63
46714;BME280;32445;51.376;10.874;2023-04-27T10:58:30;99800.22;;;13.82;35.81
46714;BME280;32445;51.376;10.874;2023-04-27T11:01:31;99801.56;;;13.94;35.66
46714;BME280;32445;51.376;10.874;2023-04-27T11:04:38;99803.00;;;14.03;35.71
46714;BME280;32445;51.376;10.874;2023-04-27T11:07:39;99791.59;;;14.06;35.12
46714;BME280;32445;51.376;10.874;2023-04-27T11:10:43;99798.44;;;14.08;35.54
46714;BME280;32445;51.376;10.874;2023-04-27T11:13:47;99799.44;;;14.06;34.97
46714;BME280;32445;51.376;10.874;2023-04-27T11:16:48;99805.16;;;14.15;35.47
46714;BME280;32445;51.376;10.874;2023-04-27T11:19:48;99805.22;;;14.14;34.96
46714;BME280;32445;51.376;10.874;2023-04-27T11:22:48;99798.78;;;14.23;35.78
46714;BME280;32445;51.376;10.874;2023-04-27T11:25:49;99794.16;;;14.31;35.38
46714;BME280;32445;51.376;10.874;2023-04-27T11:29:00;99792.91;;;14.41;34.66
46714;BME280;32445;51.376;10.874;2023-04-27T11:32:01;99791.59;;;14.53;34.79
46714;BME280;32445;51.376;10.874;2023-04-27T11:35:03;99789.38;;;14.42;33.94
46714;BME280;32445;51.376;10.874;2023-04-27T11:38:04;99796.97;;;14.48;34.69
46714;BME280;32445;51.376;10.874;2023-04-27T11:41:05;99797.38;;;14.61;34.39
46714;BME280;32445;51.376;10.874;2023-04-27T11:44:07;99797.06;;;14.70;33.88
46714;BME280;32445;51.376;10.874;2023-04-27T11:47:15;99783.03;;;14.73;33.94
46714;BME280;32445;51.376;10.874;2023-04-27T11:50:16;99786.63;;;14.93;34.53
46714;BME280;32445;51.376;10.874;2023-04-27T11:53:16;99790.97;;;15.14;33.81
46714;BME280;32445;51.376;10.874;2023-04-27T11:56:16;99786.78;;;15.32;33.79
46714;BME280;32445;51.376;10.874;2023-04-27T11:59:19;99793.53;;;15.38;33.78
46714;BME280;32445;51.376;10.874;2023-04-27T12:02:20;99784.38;;;15.48;33.29
46714;BME280;32445;51.376;10.874;2023-04-27T12:05:23;99776.53;;;15.69;32.58
46714;BME280;32445;51.376;10.874;2023-04-27T12:08:23;99774.69;;;15.91;32.37
46714;BME280;32445;51.376;10.874;2023-04-27T12:11:27;99780.00;;;16.11;31.05
46714;BME280;32445;51.376;10.874;2023-04-27T12:14:27;99788.53;;;16.35;33.06
46714;BME280;32445;51.376;10.874;2023-04-27T12:17:28;99790.22;;;16.55;32.16
46714;BME280;32445;51.376;10.874;2023-04-27T12:20:28;99785.25;;;16.68;32.03
46714;BME280;32445;51.376;10.874;2023-04-27T12:23:29;99784.97;;;16.74;30.31
46714;BME280;32445;51.376;10.874;2023-04-27T12:26:30;99783.81;;;16.80;29.52
46714;BME280;32445;51.376;10.874;2023-04-27T12:29:30;99786.06;;;16.87;30.10
46714;BME280;32445;51.376;10.874;2023-04-27T12:32:33;99781.06;;;16.83;30.95
46714;BME280;32445;51.376;10.874;2023-04-27T12:35:33;99787.66;;;16.91;29.65
46714;BME280;32445;51.376;10.874;2023-04-27T12:38:33;99786.28;;;16.83;30.34
46714;BME280;32445;51.376;10.874;2023-04-27T12:41:34;99776.41;;;16.89;30.80
46714;BME280;32445;51.376;10.874;2023-04-27T12:44:34;99765.84;;;16.91;30.72
46714;BME280;32445;51.376;10.874;2023-04-27T12:47:35;99765.22;;;17.03;30.48
46714;BME280;32445;51.376;10.874;2023-04-27T12:50:36;99762.84;;;17.16;29.92
46714;BME280;32445;51.376;10.874;2023-04-27T12:53:36;99761.47;;;17.09;29.27
46714;BME280;32445;51.376;10.874;2023-04-27T12:56:37;99756.38;;;17.06;30.74
46714;BME280;32445;51.376;10.874;2023-04-27T12:59:37;99756.47;;;17.22;29.87
46714;BME280;32445;51.376;10.874;2023-04-27T13:02:38;99754.63;;;17.24;27.74
46714;BME280;32445;51.376;10.874;2023-04-27T13:05:38;99746.69;;;17.25;28.09
46714;BME280;32445;51.376;10.874;2023-04-27T13:08:40;99740.72;;;17.57;30.35
46714;BME280;32445;51.376;10.874;2023-04-27T13:11:40;99735.16;;;17.63;27.48
46714;BME280;32445;51.376;10.874;2023-04-27T13:14:41;99734.72;;;17.88;29.11
46714;BME280;32445;51.376;10.874;2023-04-27T13:17:42;99736.34;;;18.24;29.57
46714;BME280;32445;51.376;10.874;2023-04-27T13:20:42;99738.63;;;18.46;28.43
46714;BME280;32445;51.376;10.874;2023-04-27T13:23:43;99738.13;;;18.56;28.82
46714;BME280;32445;51.376;10.874;2023-04-27T13:26:43;99732.72;;;18.59;26.59
46714;BME280;32445;51.376;10.874;2023-04-27T13:29:43;99736.00;;;18.62;26.95
46714;BME280;32445;51.376;10.874;2023-04-27T13:32:44;99733.19;;;18.49;26.99
46714;BME280;32445;51.376;10.874;2023-04-27T13:35:44;99739.59;;;18.61;26.96
46714;BME280;32445;51.376;10.874;2023-04-27T13:38:44;99738.69;;;18.77;27.13
46714;BME280;32445;51.376;10.874;2023-04-27T13:41:45;99732.59;;;18.76;26.60
46714;BME280;32445;51.376;10.874;2023-04-27T13:44:46;99730.75;;;18.94;27.11
46714;BME280;32445;51.376;10.874;2023-04-27T13:47:46;99725.72;;;19.06;27.72
46714;BME280;32445;51.376;10.874;2023-04-27T13:50:47;99729.63;;;19.29;28.75
46714;BME280;32445;51.376;10.874;2023-04-27T13:53:47;99732.75;;;19.50;27.30
46714;BME280;32445;51.376;10.874;2023-04-27T13:56:47;99729.00;;;19.54;26.30
46714;BME280;32445;51.376;10.874;2023-04-27T13:59:48;99720.28;;;19.53;26.50
46714;BME280;32445;51.376;10.874;2023-04-27T14:02:48;99728.56;;;19.62;27.07
46714;BME280;32445;51.376;10.874;2023-04-27T14:05:49;99725.78;;;19.79;28.23
46714;BME280;32445;51.376;10.874;2023-04-27T14:08:50;99730.31;;;19.92;26.94
46714;BME280;32445;51.376;10.874;2023-04-27T14:11:50;99728.81;;;20.02;28.57
46714;BME280;32445;51.376;10.874;2023-04-27T14:14:51;99727.47;;;20.09;27.74
46714;BME280;32445;51.376;10.874;2023-04-27T14:17:51;99728.69;;;20.18;26.41
46714;BME280;32445;51.376;10.874;2023-04-27T14:20:51;99730.09;;;20.23;27.83
46714;BME280;32445;51.376;10.874;2023-04-27T14:23:53;99722.72;;;20.29;25.25
46714;BME280;32445;51.376;10.874;2023-04-27T14:26:54;99726.25;;;20.15;24.64
46714;BME280;32445;51.376;10.874;2023-04-27T14:29:54;99731.16;;;20.07;25.52
46714;BME280;32445;51.376;10.874;2023-04-27T14:32:54;99721.53;;;20.05;25.85
46714;BME280;32445;51.376;10.874;2023-04-27T14:35:55;99723.91;;;20.10;25.98
46714;BME280;32445;51.376;10.874;2023-04-27T14:38:55;99722.00;;;20.12;26.07
46714;BME280;32445;51.376;10.874;2023-04-27T14:41:56;99720.41;;;20.10;26.59
46714;BME280;32445;51.376;10.874;2023-04-27T14:44:56;99721.28;;;20.10;26.32
46714;BME280;32445;51.376;10.874;2023-04-27T14:47:57;99713.94;;;20.01;25.76
46714;BME280;32445;51.376;10.874;2023-04-27T14:50:57;99727.78;;;20.04;26.03
46714;BME280;32445;51.376;10.874;2023-04-27T14:53:58;99719.28;;;19.99;25.41
46714;BME280;32445;51.376;10.874;2023-04-27T14:56:59;99709.50;;;19.87;24.96
46714;BME280;32445;51.376;10.874;2023-04-27T15:00:00;99705.94;;;19.88;27.57
46714;BME280;32445;51.376;10.874;2023-04-27T15:03:00;99715.81;;;19.99;27.91
46714;BME280;32445;51.376;10.874;2023-04-27T15:06:01;99719.78;;;20.06;25.81
46714;BME280;32445;51.376;10.874;2023-04-27T15:09:01;99711.47;;;20.12;26.49
46714;BME280;32445;51.376;10.874;2023-04-27T15:12:03;99706.66;;;20.19;25.55
46714;BME280;32445;51.376;10.874;2023-04-27T15:18:50;99699.06;;;20.42;25.99
46714;BME280;32445;51.376;10.874;2023-04-27T15:21:54;99693.16;;;20.38;24.68
46714;BME280;32445;51.376;10.874;2023-04-27T15:25:22;99689.38;;;20.42;25.16
46714;BME280;32445;51.376;10.874;2023-04-27T15:28:29;99687.00;;;20.52;24.62
46714;BME280;32445;51.376;10.874;2023-04-27T15:31:35;99681.59;;;20.40;23.34
46714;BME280;32445;51.376;10.874;2023-04-27T15:34:36;99674.81;;;20.36;25.60
46714;BME280;32445;51.376;10.874;2023-04-27T15:37:36;99679.28;;;20.49;25.94
46714;BME280;32445;51.376;10.874;2023-04-27T15:40:37;99682.25;;;20.57;25.20
46714;BME280;32445;51.376;10.874;2023-04-27T15:43:37;99677.44;;;20.64;26.91
46714;BME280;32445;51.376;10.874;2023-04-27T15:46:38;99670.84;;;20.71;25.83
46714;BME280;32445;51.376;10.874;2023-04-27T15:49:39;99675.72;;;20.77;25.90
46714;BME280;32445;51.376;10.874;2023-04-27T15:52:39;99664.97;;;20.80;25.87
46714;BME280;32445;51.376;10.874;2023-04-27T15:55:39;99669.28;;;20.81;25.73
46714;BME280;32445;51.376;10.874;2023-04-27T15:58:40;99663.41;;;20.78;25.29
46714;BME280;32445;51.376;10.874;2023-04-27T16:01:40;99661.13;;;20.71;24.60
46714;BME280;32445;51.376;10.874;2023-04-27T16:18:26;99649.03;;;20.27;25.76
46714;BME280;32445;51.376;10.874;2023-04-27T16:43:06;99636.00;;;20.38;25.87